Vandergrift, Pennsylvania
Current Conditions -  °F | °C
As of 8:55 AM on Friday 24 Oct 2014 (Local Time) from KBTP Reporting Station
Overcast Overcast  
Wind Chill: 39°   Ceiling: 300
Heat Index: 43°   Visibility: 1.5mi
Dew Point: 39°   Wind: 7mph
Humidity: 87%   Direction: 230°SW
Pressure: 30.13"   Gusts: NA
Location:  40.6°N, 79.57°W
Report Text: KBTP 241255Z AUTO 23006KT 1 1/2SM OVC003 06/04 A3013 RMK AO1
Loading
Personal Weather Stations






























Interactive Weather Map
Tropical Storm Tracking
New forecast layout! Learn more

10-Day Weather Forecast

Advertisements
Track Severe Weather on mobile